Time;durP1;ratioP1;P1;durP2;ratioP2;P2;SDS_P1;SDS_P2;PMS_P1;PMS_P2;Temp;Humidity;BMP_temperature;BMP_pressure;BME280_temperature;BME280_humidity;BME280_pressure;Samples;Min_cycle;Max_cycle;Signal;HPM_P1;HPM_P2
2023/06/09 00:00:18;;;;;;;11.20;9.07;;;18.00;84.80;;;;;;4979670;28;20018;-83
2023/06/09 00:02:47;;;;;;;10.00;8.18;;;18.00;84.70;;;;;;4997081;28;20105;-83
2023/06/09 00:05:13;;;;;;;9.07;6.90;;;18.00;84.70;;;;;;4979074;28;20392;-83
2023/06/09 00:07:38;;;;;;;9.40;7.47;;;18.00;84.60;;;;;;4979294;28;20038;-83
2023/06/09 00:10:04;;;;;;;10.68;8.00;;;18.10;84.60;;;;;;4996920;28;20036;-82
2023/06/09 00:12:30;;;;;;;10.23;8.43;;;18.10;84.50;;;;;;4996271;28;20396;-82
2023/06/09 00:14:57;;;;;;;9.60;7.85;;;18.10;84.50;;;;;;4979132;28;20029;-83
2023/06/09 00:17:24;;;;;;;9.85;8.07;;;18.10;84.40;;;;;;4990628;28;20018;-82
2023/06/09 00:19:52;;;;;;;9.90;8.30;;;18.20;84.40;;;;;;4996230;28;20019;-84
2023/06/09 00:22:19;;;;;;;9.27;7.60;;;18.20;84.40;;;;;;4996205;28;20022;-83
2023/06/09 00:24:45;;;;;;;9.82;8.25;;;18.10;84.30;;;;;;4993646;28;20473;-83
2023/06/09 00:27:11;;;;;;;9.68;7.60;;;18.10;84.30;;;;;;4994304;28;20031;-82
2023/06/09 00:29:36;;;;;;;10.07;7.75;;;18.10;84.30;;;;;;4995298;28;20477;-82
2023/06/09 00:32:03;;;;;;;9.68;7.53;;;18.10;84.50;;;;;;4995850;28;20080;-81
2023/06/09 00:34:28;;;;;;;9.73;7.97;;;18.00;84.40;;;;;;4995330;28;20026;-82
2023/06/09 00:36:54;;;;;;;11.13;8.93;;;18.10;84.60;;;;;;4989904;28;20504;-83
2023/06/09 00:39:19;;;;;;;9.77;7.90;;;18.00;84.70;;;;;;4995895;28;20080;-83
2023/06/09 00:41:45;;;;;;;10.15;8.52;;;18.00;84.70;;;;;;4996663;28;20029;-83
2023/06/09 00:44:12;;;;;;;10.00;8.27;;;18.00;84.80;;;;;;4996566;28;20018;-83
2023/06/09 00:46:38;;;;;;;9.93;8.27;;;18.00;84.80;;;;;;4987470;28;20030;-83
2023/06/09 00:49:04;;;;;;;10.60;8.35;;;18.00;84.90;;;;;;4994994;28;20097;-82
2023/06/09 00:51:33;;;;;;;9.68;7.40;;;18.00;84.90;;;;;;4996261;28;20465;-83
2023/06/09 00:53:59;;;;;;;10.43;8.18;;;17.90;84.80;;;;;;4978061;28;20038;-82
2023/06/09 00:56:25;;;;;;;10.35;8.63;;;18.00;84.90;;;;;;4972803;28;20034;-83
2023/06/09 00:58:51;;;;;;;9.25;7.55;;;18.00;85.00;;;;;;4969934;28;20018;-84
2023/06/09 01:01:17;;;;;;;8.75;7.00;;;18.00;84.90;;;;;;4978315;28;20078;-82
2023/06/09 01:03:46;;;;;;;7.93;6.72;;;18.00;85.40;;;;;;4995224;28;20081;-82
2023/06/09 01:06:26;;;;;;;8.77;6.95;;;18.00;84.90;;;;;;4978114;28;20076;-82
2023/06/09 01:09:02;;;;;;;8.98;6.95;;;17.90;84.80;;;;;;4977894;28;20484;-82
2023/06/09 01:11:52;;;;;;;8.45;6.90;;;17.90;84.90;;;;;;4995734;28;20030;-82
2023/06/09 01:14:31;;;;;;;8.38;6.80;;;18.00;84.90;;;;;;4978066;28;20101;-83
2023/06/09 01:17:08;;;;;;;8.75;7.15;;;17.90;84.90;;;;;;4977508;28;20038;-83
2023/06/09 01:19:41;;;;;;;9.18;6.97;;;17.90;84.90;;;;;;4995148;28;20027;-83
2023/06/09 01:22:31;;;;;;;9.70;7.50;;;17.90;84.90;;;;;;4977475;28;20026;-84
2023/06/09 01:25:06;;;;;;;8.23;6.43;;;17.90;85.00;;;;;;4994504;28;20073;-83
2023/06/09 01:27:36;;;;;;;10.07;7.60;;;17.90;85.40;;;;;;4966995;28;20035;-82
2023/06/09 01:30:02;;;;;;;10.65;8.02;;;17.90;85.00;;;;;;4973916;28;20046;-84
2023/06/09 01:32:29;;;;;;;9.13;6.93;;;17.90;85.00;;;;;;4975557;28;20031;-83
2023/06/09 01:34:55;;;;;;;9.63;7.90;;;17.90;85.00;;;;;;4978119;28;20034;-83
2023/06/09 01:37:20;;;;;;;8.98;7.20;;;18.00;85.00;;;;;;4994183;28;20034;-82
2023/06/09 01:39:46;;;;;;;9.02;7.28;;;18.00;84.90;;;;;;4994279;28;20029;-83
2023/06/09 01:42:12;;;;;;;8.65;6.97;;;18.00;84.80;;;;;;4994418;28;20030;-82
2023/06/09 01:44:37;;;;;;;9.00;7.28;;;18.00;84.70;;;;;;4994095;28;20109;-82
2023/06/09 01:47:05;;;;;;;9.30;6.57;;;18.00;84.70;;;;;;4992898;28;20030;-82
2023/06/09 01:49:54;;;;;;;8.93;7.25;;;18.10;84.60;;;;;;4993659;28;20035;-82
2023/06/09 01:52:25;;;;;;;8.52;7.00;;;18.00;84.50;;;;;;4979326;28;20053;-82
2023/06/09 01:54:56;;;;;;;;;;;18.10;84.50;;;;;;4976735;28;20547;-83
2023/06/09 01:57:38;;;;;;;8.93;7.10;;;18.10;84.50;;;;;;4993824;28;19914;-82
2023/06/09 02:00:06;;;;;;;9.15;7.13;;;18.10;84.50;;;;;;4995983;28;20421;-82
2023/06/09 02:02:34;;;;;;;9.30;7.18;;;18.10;84.60;;;;;;4997424;28;20081;-82
2023/06/09 02:05:03;;;;;;;9.18;7.18;;;18.00;84.60;;;;;;4996692;28;20038;-82
2023/06/09 02:07:30;;;;;;;9.45;7.18;;;18.00;85.20;;;;;;4978521;28;20042;-82
2023/06/09 02:09:56;;;;;;;9.75;7.78;;;18.00;84.80;;;;;;4976224;28;20489;-82
2023/06/09 02:12:22;;;;;;;9.82;8.13;;;18.00;84.90;;;;;;4989625;28;20077;-82
2023/06/09 02:14:47;;;;;;;10.32;8.25;;;18.00;84.90;;;;;;4996796;28;20050;-82
2023/06/09 02:17:12;;;;;;;9.20;7.45;;;18.00;85.00;;;;;;4978598;28;20101;-82
2023/06/09 02:19:38;;;;;;;9.27;7.53;;;18.00;85.10;;;;;;4979084;28;20027;-82
2023/06/09 02:22:05;;;;;;;9.82;7.85;;;17.90;85.10;;;;;;4996310;28;20018;-82
2023/06/09 02:24:31;;;;;;;9.50;7.47;;;17.90;85.00;;;;;;4978719;28;20504;-82
2023/06/09 02:26:57;;;;;;;10.48;7.80;;;18.00;85.10;;;;;;4985292;28;20019;-83
2023/06/09 02:29:24;;;;;;;9.95;7.68;;;17.90;85.10;;;;;;4991634;28;20041;-82
2023/06/09 02:31:49;;;;;;;8.32;6.80;;;17.90;85.10;;;;;;4971218;28;20108;-83
2023/06/09 02:34:15;;;;;;;8.57;6.68;;;17.90;85.10;;;;;;4978552;28;20062;-82
2023/06/09 02:36:42;;;;;;;10.00;7.10;;;17.90;85.00;;;;;;4995571;28;20113;-82
2023/06/09 02:39:08;;;;;;;10.23;6.63;;;17.80;85.00;;;;;;4995840;28;20501;-82
2023/06/09 02:41:34;;;;;;;8.32;6.30;;;17.90;85.00;;;;;;4978110;28;20508;-82
2023/06/09 02:43:59;;;;;;;8.60;6.32;;;17.90;85.00;;;;;;4994228;28;20094;-82
2023/06/09 02:46:25;;;;;;;8.20;6.00;;;17.90;85.00;;;;;;4995193;28;20039;-82
2023/06/09 02:48:50;;;;;;;9.00;6.53;;;17.90;85.00;;;;;;4995955;28;20524;-82
2023/06/09 02:51:16;;;;;;;8.48;6.80;;;17.90;85.00;;;;;;4995543;28;20117;-82
2023/06/09 02:53:41;;;;;;;9.27;7.10;;;17.90;85.00;;;;;;4995530;28;20030;-82
2023/06/09 02:56:08;;;;;;;8.68;6.95;;;17.90;85.10;;;;;;4975200;28;20052;-82
2023/06/09 02:58:34;;;;;;;10.10;7.90;;;17.90;85.10;;;;;;4993962;28;20026;-82
2023/06/09 03:01:00;;;;;;;10.43;7.78;;;17.90;85.10;;;;;;4995182;28;20050;-81
2023/06/09 03:03:28;;;;;;;8.93;7.32;;;17.90;85.10;;;;;;4995275;28;20045;-83
2023/06/09 03:05:54;;;;;;;10.05;7.22;;;17.90;85.10;;;;;;4992531;28;20030;-82
2023/06/09 03:08:19;;;;;;;9.02;7.07;;;17.90;85.10;;;;;;4975016;28;20874;-82
2023/06/09 03:10:45;;;;;;;8.90;6.60;;;18.00;85.00;;;;;;4977318;28;20042;-82
2023/06/09 03:13:11;;;;;;;8.65;6.40;;;18.00;85.00;;;;;;4993760;28;20022;-82
2023/06/09 03:15:36;;;;;;;7.95;5.85;;;18.00;84.90;;;;;;4991760;28;20026;-84
2023/06/09 03:18:02;;;;;;;8.02;6.15;;;18.00;84.80;;;;;;4979440;28;20396;-83
2023/06/09 03:20:27;;;;;;;8.45;6.15;;;18.00;84.70;;;;;;4996400;28;20022;-84
2023/06/09 03:22:54;;;;;;;8.80;6.50;;;18.10;84.70;;;;;;4997958;28;20030;-84
2023/06/09 03:25:20;;;;;;;7.72;5.78;;;18.10;84.70;;;;;;4979806;28;20077;-83
2023/06/09 03:27:45;;;;;;;8.68;6.82;;;18.10;84.60;;;;;;4996801;28;20493;-83
2023/06/09 03:30:11;;;;;;;8.77;7.07;;;18.10;84.60;;;;;;4996043;28;20065;-84
2023/06/09 03:32:37;;;;;;;9.00;6.68;;;18.10;84.60;;;;;;4979697;28;20026;-82
2023/06/09 03:35:03;;;;;;;8.05;6.28;;;18.10;84.60;;;;;;4979568;28;20022;-82
2023/06/09 03:37:28;;;;;;;9.30;7.20;;;18.00;84.70;;;;;;4979116;28;20076;-82
2023/06/09 03:39:54;;;;;;;8.93;6.40;;;18.00;84.60;;;;;;4996590;28;20018;-82
2023/06/09 03:42:19;;;;;;;10.50;8.05;;;18.00;84.80;;;;;;4979273;28;20034;-82
2023/06/09 03:44:45;;;;;;;9.60;7.40;;;18.00;84.90;;;;;;4979064;28;20022;-83
2023/06/09 03:47:10;;;;;;;8.73;7.00;;;18.00;85.00;;;;;;4978436;28;20081;-84
2023/06/09 03:49:36;;;;;;;9.43;7.68;;;18.00;85.00;;;;;;4975491;28;20037;-83
2023/06/09 03:52:01;;;;;;;9.85;7.32;;;18.00;85.00;;;;;;4996004;28;20030;-82
2023/06/09 03:54:27;;;;;;;8.82;6.80;;;18.00;85.10;;;;;;4996207;28;20073;-82
2023/06/09 03:56:53;;;;;;;9.63;7.18;;;18.00;85.10;;;;;;4994117;28;20050;-82
2023/06/09 03:59:18;;;;;;;9.43;6.60;;;17.90;85.10;;;;;;4978470;28;20034;-82
2023/06/09 04:01:44;;;;;;;10.45;7.05;;;17.90;85.10;;;;;;4995811;28;20025;-82
2023/06/09 04:04:09;;;;;;;8.75;7.03;;;17.90;85.10;;;;;;4995209;28;20027;-84
2023/06/09 04:06:36;;;;;;;9.48;6.50;;;17.90;85.10;;;;;;4991147;28;20031;-84
2023/06/09 04:09:03;;;;;;;8.40;6.30;;;17.90;85.10;;;;;;4996833;28;20028;-83
2023/06/09 04:11:30;;;;;;;8.70;6.38;;;18.00;85.10;;;;;;4979994;28;20686;-83
2023/06/09 04:13:56;;;;;;;8.45;6.07;;;17.90;85.10;;;;;;4979208;28;20038;-82
2023/06/09 04:16:21;;;;;;;10.00;6.88;;;17.90;85.00;;;;;;4997554;28;20366;-84
2023/06/09 04:18:46;;;;;;;8.98;6.97;;;17.90;85.00;;;;;;4992460;28;20026;-86
2023/06/09 04:21:13;;;;;;;9.23;5.93;;;17.90;85.10;;;;;;4981686;28;20061;-85
2023/06/09 04:23:38;;;;;;;8.48;6.15;;;17.90;85.00;;;;;;4993520;28;20065;-83
2023/06/09 04:32:36;;;;;;;9.93;6.97;;;17.90;85.00;;;;;;4994268;28;20037;-85
2023/06/09 04:35:02;;;;;;;10.52;7.22;;;18.00;85.10;;;;;;4971520;28;20044;-81
2023/06/09 04:37:34;;;;;;;10.00;7.30;;;17.90;85.00;;;;;;4974003;28;20026;-84
2023/06/09 04:39:59;;;;;;;9.38;7.03;;;18.10;85.20;;;;;;4956413;28;20022;-80
2023/06/09 04:42:25;;;;;;;9.93;7.00;;;18.40;85.30;;;;;;4954883;28;20089;-81
2023/06/09 04:44:51;;;;;;;9.10;6.63;;;17.90;85.10;;;;;;4973018;28;20086;-82
2023/06/09 04:47:18;;;;;;;8.57;6.60;;;17.90;85.00;;;;;;4955083;28;20049;-82
2023/06/09 04:49:46;;;;;;;8.25;5.90;;;18.00;85.00;;;;;;4961765;28;20037;-80
2023/06/09 04:52:17;;;;;;;8.13;6.05;;;18.70;85.30;;;;;;4956943;28;20038;-84
2023/06/09 04:54:44;;;;;;;8.73;6.53;;;18.00;84.90;;;;;;4973982;28;20051;-85
2023/06/09 04:57:12;;;;;;;8.98;6.25;;;18.00;84.80;;;;;;4966010;28;20168;-83
2023/06/09 04:59:41;;;;;;;8.02;6.13;;;18.00;84.70;;;;;;4960598;28;20055;-82
2023/06/09 05:02:08;;;;;;;8.40;6.18;;;18.10;84.70;;;;;;4975509;28;20035;-83
2023/06/09 05:04:34;;;;;;;8.88;7.10;;;18.10;84.60;;;;;;4956748;28;20031;-82
2023/06/09 05:07:01;;;;;;;8.02;6.03;;;18.10;84.60;;;;;;4962316;28;20038;-82
2023/06/09 05:09:27;;;;;;;8.00;6.25;;;18.10;84.60;;;;;;4963746;28;20122;-81
2023/06/09 05:11:52;;;;;;;9.18;6.68;;;18.10;84.60;;;;;;4964658;28;20140;-83
2023/06/09 05:14:18;;;;;;;8.85;7.20;;;18.10;84.60;;;;;;4975391;28;20030;-80
2023/06/09 05:16:45;;;;;;;8.60;6.40;;;18.10;84.70;;;;;;4962532;28;20030;-82
2023/06/09 05:19:11;;;;;;;8.95;6.65;;;18.10;84.70;;;;;;4970483;28;20424;-82
2023/06/09 05:21:37;;;;;;;9.13;6.75;;;18.10;84.70;;;;;;4965594;28;20031;-83
2023/06/09 05:24:03;;;;;;;8.18;5.97;;;18.00;84.70;;;;;;4981086;28;20485;-83
2023/06/09 05:26:29;;;;;;;8.70;5.90;;;18.00;84.70;;;;;;4978095;28;20509;-83
2023/06/09 05:28:54;;;;;;;9.45;6.68;;;18.00;84.70;;;;;;4967708;28;20046;-82
2023/06/09 05:31:20;;;;;;;7.97;5.75;;;18.00;84.80;;;;;;4957400;28;20033;-83
2023/06/09 05:33:46;;;;;;;9.27;6.40;;;18.00;84.80;;;;;;4966318;28;20141;-83
2023/06/09 05:36:12;;;;;;;9.43;6.68;;;18.10;84.70;;;;;;4990890;28;20130;-82
2023/06/09 05:38:37;;;;;;;10.60;6.93;;;18.00;84.70;;;;;;4964807;28;20037;-82
2023/06/09 05:41:03;;;;;;;8.25;6.32;;;18.10;84.80;;;;;;4960942;28;20485;-81
2023/06/09 05:43:29;;;;;;;8.32;6.35;;;18.00;84.70;;;;;;4962429;28;20027;-83
2023/06/09 05:45:56;;;;;;;8.25;6.10;;;18.00;84.70;;;;;;4962089;28;20429;-83
2023/06/09 05:48:21;;;;;;;8.02;5.65;;;18.00;85.10;;;;;;4961021;28;20042;-82
2023/06/09 05:50:47;;;;;;;9.27;6.68;;;18.00;84.70;;;;;;4979723;28;20039;-82
2023/06/09 05:53:12;;;;;;;8.38;5.55;;;18.10;84.60;;;;;;4961467;28;20081;-82
2023/06/09 05:55:38;;;;;;;7.82;5.57;;;18.10;84.60;;;;;;4961309;28;20050;-83
2023/06/09 05:58:04;;;;;;;7.95;5.78;;;18.00;84.60;;;;;;4972245;28;20054;-83
2023/06/09 06:00:30;;;;;;;8.15;5.60;;;18.00;84.60;;;;;;4980036;28;20037;-82
2023/06/09 06:03:00;;;;;;;9.07;6.35;;;18.10;84.60;;;;;;4987610;28;20209;-82
2023/06/09 06:05:26;;;;;;;8.85;5.97;;;18.10;84.50;;;;;;4960999;28;20065;-82
2023/06/09 06:07:51;;;;;;;7.82;5.60;;;18.10;84.50;;;;;;4993386;28;20089;-81
2023/06/09 06:10:17;;;;;;;8.75;6.68;;;18.10;84.50;;;;;;4957037;28;20039;-82
2023/06/09 06:12:43;;;;;;;9.50;7.10;;;18.10;84.50;;;;;;4980650;28;20027;-82
2023/06/09 06:15:09;;;;;;;9.27;5.80;;;18.10;84.50;;;;;;4960380;28;20034;-82
2023/06/09 06:17:34;;;;;;;9.43;6.63;;;18.10;84.50;;;;;;4977280;28;20031;-82
2023/06/09 06:20:00;;;;;;;8.88;6.13;;;18.20;84.40;;;;;;4978126;28;20034;-82
2023/06/09 06:22:26;;;;;;;8.55;6.10;;;18.20;84.30;;;;;;4977978;28;20030;-82
2023/06/09 06:24:51;;;;;;;8.45;5.82;;;18.20;84.30;;;;;;4977311;28;20072;-82
2023/06/09 06:27:17;;;;;;;8.48;6.30;;;18.20;84.10;;;;;;4958876;28;20043;-82
2023/06/09 06:29:42;;;;;;;9.20;6.43;;;18.20;84.00;;;;;;4959616;28;20401;-82
2023/06/09 06:32:08;;;;;;;8.75;6.00;;;18.30;83.90;;;;;;4959544;28;20457;-82
2023/06/09 06:34:34;;;;;;;8.05;6.05;;;18.40;83.90;;;;;;4959241;28;20031;-82
2023/06/09 06:37:00;;;;;;;8.88;6.43;;;18.30;83.70;;;;;;4965761;28;20075;-82
2023/06/09 06:39:25;;;;;;;8.75;5.90;;;18.30;83.60;;;;;;4982500;28;20393;-82
2023/06/09 06:41:51;;;;;;;9.10;6.60;;;18.40;83.60;;;;;;4981371;28;20023;-84
2023/06/09 06:44:16;;;;;;;8.60;6.00;;;18.40;83.50;;;;;;4990625;28;20115;-83
2023/06/09 06:46:42;;;;;;;8.77;6.63;;;18.40;83.50;;;;;;4980546;28;20046;-84
2023/06/09 06:49:07;;;;;;;8.38;6.38;;;18.40;83.60;;;;;;4970090;28;20524;-83
2023/06/09 06:51:33;;;;;;;9.05;6.30;;;18.40;83.60;;;;;;4996182;28;20042;-85
2023/06/09 06:53:58;;;;;;;9.43;6.10;;;18.30;83.60;;;;;;4970666;28;20063;-84
2023/06/09 06:56:25;;;;;;;7.68;5.22;;;18.30;83.60;;;;;;4982550;28;20043;-83
2023/06/09 06:58:51;;;;;;;7.80;5.60;;;18.30;83.60;;;;;;4986512;28;20022;-82
2023/06/09 07:01:20;;;;;;;8.75;6.05;;;18.30;83.60;;;;;;4989646;28;20057;-82
2023/06/09 07:03:46;;;;;;;8.60;6.60;;;18.30;83.60;;;;;;4988025;28;20515;-83
2023/06/09 07:06:12;;;;;;;8.73;6.80;;;18.30;83.70;;;;;;4974042;28;20022;-84
2023/06/09 07:08:37;;;;;;;8.30;6.07;;;18.30;83.80;;;;;;4981727;28;20037;-82
2023/06/09 07:11:03;;;;;;;9.52;6.68;;;18.40;83.60;;;;;;4967087;28;20031;-83
2023/06/09 07:13:29;;;;;;;8.93;6.30;;;18.30;83.60;;;;;;5004197;28;20037;-83
2023/06/09 07:15:54;;;;;;;9.18;6.90;;;18.40;83.60;;;;;;4965168;28;20020;-82
2023/06/09 07:18:20;;;;;;;8.00;6.10;;;18.40;83.60;;;;;;4982907;28;20022;-82
2023/06/09 07:20:47;;;;;;;8.55;5.80;;;18.40;83.50;;;;;;4970363;28;20549;-82
2023/06/09 07:23:13;;;;;;;8.32;6.28;;;18.40;83.50;;;;;;4983044;28;20046;-81
2023/06/09 07:25:38;;;;;;;8.30;6.38;;;18.40;83.40;;;;;;4983272;28;20489;-84
2023/06/09 07:28:04;;;;;;;8.52;6.05;;;18.50;83.50;;;;;;4965885;28;20043;-82
2023/06/09 07:30:29;;;;;;;8.50;6.13;;;18.50;83.40;;;;;;4993959;28;20065;-84
2023/06/09 07:32:55;;;;;;;9.20;6.10;;;18.50;83.40;;;;;;4981775;28;20107;-84
2023/06/09 07:35:23;;;;;;;9.35;7.25;;;18.50;83.40;;;;;;4975488;28;20034;-84
2023/06/09 07:37:48;;;;;;;8.57;6.55;;;18.50;83.30;;;;;;4987741;28;20030;-83
2023/06/09 07:40:14;;;;;;;8.52;6.28;;;18.50;83.30;;;;;;4988186;28;20030;-83
2023/06/09 07:42:39;;;;;;;8.27;6.18;;;18.50;83.20;;;;;;5001949;28;20041;-83
2023/06/09 07:45:06;;;;;;;8.68;6.55;;;18.50;83.20;;;;;;4988575;28;20026;-83
2023/06/09 07:47:32;;;;;;;8.90;6.32;;;18.60;83.10;;;;;;4995461;28;20057;-83
2023/06/09 07:49:57;;;;;;;8.80;6.53;;;18.60;83.10;;;;;;4974501;28;20030;-83
2023/06/09 07:52:23;;;;;;;9.07;6.72;;;18.60;83.20;;;;;;4975861;28;20023;-83
2023/06/09 07:54:48;;;;;;;8.30;6.22;;;18.60;83.00;;;;;;4974096;28;20110;-82
2023/06/09 07:57:15;;;;;;;9.05;6.80;;;18.60;82.90;;;;;;4969105;28;20492;-83
2023/06/09 07:59:41;;;;;;;8.75;6.70;;;18.70;83.00;;;;;;4971249;28;20018;-84
2023/06/09 08:02:07;;;;;;;8.98;6.40;;;18.70;82.80;;;;;;4991730;28;20029;-82
2023/06/09 08:04:32;;;;;;;9.32;6.70;;;18.70;82.60;;;;;;4983885;28;20482;-82
2023/06/09 08:06:59;;;;;;;8.10;6.18;;;18.80;82.50;;;;;;4982535;28;20027;-83
2023/06/09 08:09:25;;;;;;;8.90;6.72;;;18.80;82.40;;;;;;4964789;28;20035;-83
2023/06/09 08:11:51;;;;;;;7.97;6.13;;;18.80;82.30;;;;;;4965561;28;20077;-82
2023/06/09 08:14:17;;;;;;;8.45;6.30;;;18.80;82.20;;;;;;4945566;29;20462;-82
2023/06/09 08:16:43;;;;;;;9.05;6.55;;;18.90;82.20;;;;;;4958464;28;20049;-82
2023/06/09 08:19:09;;;;;;;7.70;6.00;;;18.90;82.00;;;;;;4986775;28;20497;-83
2023/06/09 08:21:42;;;;;;;7.63;5.93;;;18.90;82.00;;;;;;4971748;28;20111;-84
2023/06/09 08:24:08;;;;;;;8.80;6.45;;;18.90;81.90;;;;;;4972936;28;20409;-82
2023/06/09 08:26:33;;;;;;;8.15;6.05;;;18.90;81.90;;;;;;4993163;28;20031;-82
2023/06/09 08:28:59;;;;;;;8.68;6.47;;;18.90;81.90;;;;;;4963534;28;20530;-82
2023/06/09 08:31:27;;;;;;;9.30;6.45;;;18.90;82.00;;;;;;4982798;28;20119;-80
2023/06/09 08:33:54;;;;;;;9.18;6.53;;;18.90;82.00;;;;;;4949947;28;20624;-82
2023/06/09 08:36:20;;;;;;;7.68;5.97;;;18.80;82.20;;;;;;4965641;28;20038;-83
2023/06/09 08:38:46;;;;;;;8.43;6.57;;;18.80;82.30;;;;;;4955111;29;20092;-82
2023/06/09 08:41:14;;;;;;;9.35;7.13;;;18.90;82.40;;;;;;4941864;29;20497;-82
2023/06/09 08:43:40;;;;;;;8.02;5.93;;;18.90;82.40;;;;;;4958839;29;20114;-83
2023/06/09 08:46:09;;;;;;;7.97;6.07;;;18.90;82.40;;;;;;4945762;28;20033;-82
2023/06/09 08:48:37;;;;;;;8.82;6.63;;;18.90;82.40;;;;;;4981198;28;20027;-83
2023/06/09 08:51:03;;;;;;;9.23;6.93;;;18.90;82.40;;;;;;4986746;28;20026;-82
2023/06/09 08:53:31;;;;;;;8.77;6.20;;;18.90;82.30;;;;;;4970903;28;20493;-82
2023/06/09 08:55:59;;;;;;;8.02;6.28;;;18.90;82.30;;;;;;4958049;28;20037;-83
2023/06/09 08:58:25;;;;;;;9.00;6.68;;;19.00;82.30;;;;;;4954903;28;20033;-83
2023/06/09 09:00:52;;;;;;;8.18;6.45;;;19.00;82.30;;;;;;4979186;28;20029;-84
2023/06/09 09:03:18;;;;;;;8.27;6.53;;;19.00;82.30;;;;;;4979359;28;20492;-83
2023/06/09 09:05:44;;;;;;;8.02;6.35;;;19.00;82.20;;;;;;4976892;28;20125;-83
2023/06/09 09:08:11;;;;;;;8.25;6.45;;;19.00;82.20;;;;;;4977255;28;20031;-82
2023/06/09 09:10:38;;;;;;;8.50;6.35;;;19.00;82.20;;;;;;4976302;28;20030;-81
2023/06/09 09:13:07;;;;;;;8.18;6.05;;;19.00;82.20;;;;;;4959953;28;20081;-78
2023/06/09 09:15:33;;;;;;;8.40;6.97;;;19.00;82.10;;;;;;4962179;28;20526;-78
2023/06/09 09:17:58;;;;;;;8.73;6.05;;;19.00;82.10;;;;;;4962400;28;20027;-78
2023/06/09 09:20:32;;;;;;;8.38;6.55;;;19.10;82.20;;;;;;4970233;28;20049;-79
2023/06/09 09:22:58;;;;;;;8.50;6.40;;;19.10;82.20;;;;;;4979977;28;20494;-79
2023/06/09 09:25:26;;;;;;;8.40;6.60;;;19.10;82.10;;;;;;4974305;28;20082;-79
2023/06/09 09:28:01;;;;;;;9.20;6.47;;;19.10;82.20;;;;;;4958747;28;20042;-78
2023/06/09 09:30:45;;;;;;;7.93;6.47;;;19.10;82.10;;;;;;4957624;28;20077;-79
2023/06/09 09:33:12;;;;;;;9.75;6.85;;;19.10;82.20;;;;;;4960648;28;20097;-78
2023/06/09 09:35:39;;;;;;;8.55;6.65;;;19.20;82.10;;;;;;4977783;28;20042;-78
2023/06/09 09:38:11;;;;;;;8.45;6.55;;;19.20;82.00;;;;;;4939790;29;20110;-78
2023/06/09 09:40:42;;;;;;;8.75;7.13;;;19.20;81.90;;;;;;4971018;28;20521;-78
2023/06/09 09:43:10;;;;;;;8.85;6.38;;;19.20;81.80;;;;;;4975477;28;20066;-78
2023/06/09 09:45:38;;;;;;;8.95;6.35;;;19.20;81.70;;;;;;4977178;28;20023;-80
2023/06/09 09:48:09;;;;;;;8.32;6.35;;;19.20;81.70;;;;;;4994223;28;20620;-78
2023/06/09 09:50:38;;;;;;;8.07;5.95;;;19.30;81.70;;;;;;4959908;28;20409;-84
2023/06/09 09:53:07;;;;;;;10.02;6.32;;;19.30;81.60;;;;;;4974536;28;20035;-83
2023/06/09 09:55:35;;;;;;;8.18;6.35;;;19.30;81.60;;;;;;4956599;28;20035;-83
2023/06/09 09:58:06;;;;;;;8.38;6.30;;;19.30;81.50;;;;;;4956717;28;20022;-83
2023/06/09 10:00:35;;;;;;;8.68;6.55;;;19.30;81.10;;;;;;4974162;28;20381;-83
2023/06/09 10:03:19;;;;;;;8.15;6.50;;;19.30;81.20;;;;;;4965627;28;20405;-84
2023/06/09 10:05:47;;;;;;;8.07;6.40;;;19.30;81.30;;;;;;4973105;28;20026;-84
2023/06/09 10:08:19;;;;;;;9.40;6.47;;;19.30;81.40;;;;;;4981529;28;20084;-86
2023/06/09 10:10:45;;;;;;;7.57;6.03;;;19.30;81.60;;;;;;4980749;28;20022;-85
2023/06/09 10:13:12;;;;;;;8.23;6.35;;;19.30;81.70;;;;;;5000769;28;20568;-85
2023/06/09 10:15:41;;;;;;;9.05;6.60;;;19.30;81.80;;;;;;4975386;28;20050;-85
2023/06/09 10:18:08;;;;;;;8.60;6.10;;;19.30;81.80;;;;;;4983278;28;20134;-84
2023/06/09 10:20:33;;;;;;;8.63;6.20;;;19.30;81.90;;;;;;4997221;28;20019;-84
2023/06/09 10:22:59;;;;;;;8.57;6.70;;;19.30;81.90;;;;;;5005893;28;20030;-85
2023/06/09 10:25:26;;;;;;;7.47;5.93;;;19.30;81.80;;;;;;4988379;28;20030;-84
2023/06/09 10:27:52;;;;;;;9.30;6.50;;;19.30;81.90;;;;;;4996071;28;20026;-85
2023/06/09 10:30:18;;;;;;;9.15;6.93;;;19.30;81.90;;;;;;4973480;28;20034;-85
2023/06/09 10:32:47;;;;;;;8.55;6.75;;;19.30;81.80;;;;;;4972942;28;20450;-86
2023/06/09 10:35:17;;;;;;;9.82;6.97;;;19.30;81.80;;;;;;4998293;28;20023;-85
2023/06/09 10:37:45;;;;;;;7.43;6.00;;;19.40;81.90;;;;;;4995868;28;20030;-85
2023/06/09 10:40:47;;;;;;;8.30;6.00;;;19.40;81.90;;;;;;4998635;28;20022;-86
2023/06/09 10:43:44;;;;;;;8.32;6.70;;;19.30;81.80;;;;;;4989500;28;20061;-85
2023/06/09 10:46:12;;;;;;;8.57;6.45;;;19.30;81.80;;;;;;4987208;28;20031;-86
2023/06/09 10:48:49;;;;;;;8.18;6.28;;;19.40;81.90;;;;;;4997775;28;20026;-85
2023/06/09 10:51:27;;;;;;;7.95;6.47;;;19.40;81.90;;;;;;4969287;28;20054;-85
2023/06/09 10:54:25;;;;;;;7.75;6.15;;;19.30;81.80;;;;;;4968201;28;20023;-84
2023/06/09 10:57:00;;;;;;;7.90;6.03;;;19.30;81.80;;;;;;4965113;28;20038;-86
2023/06/09 10:59:25;;;;;;;8.15;6.40;;;19.40;81.90;;;;;;4997716;28;20046;-87
2023/06/09 11:02:03;;;;;;;7.70;6.00;;;19.40;81.80;;;;;;4980230;28;20452;-86
2023/06/09 11:04:37;;;;;;;8.73;6.50;;;19.30;82.00;;;;;;4984087;28;20023;-86
2023/06/09 11:07:22;;;;;;;9.32;6.22;;;19.40;81.80;;;;;;4988990;28;20514;-85
2023/06/09 11:09:49;;;;;;;7.55;6.22;;;19.40;81.80;;;;;;4982853;28;20030;-85
2023/06/09 11:12:38;;;;;;;7.55;6.20;;;19.40;81.70;;;;;;4986371;28;20026;-85
2023/06/09 11:15:05;;;;;;;8.05;6.47;;;19.50;81.60;;;;;;5010316;28;20053;-84
2023/06/09 11:17:37;;;;;;;8.88;6.75;;;19.50;81.60;;;;;;4984422;28;20061;-86
2023/06/09 11:20:09;;;;;;;8.38;6.53;;;19.40;81.50;;;;;;4987812;28;20518;-86
2023/06/09 11:22:35;;;;;;;7.60;5.75;;;19.50;81.50;;;;;;4971713;28;20035;-84
2023/06/09 11:25:00;;;;;;;7.90;6.40;;;19.50;81.50;;;;;;4980366;28;20125;-84
2023/06/09 11:27:26;;;;;;;8.05;6.22;;;19.50;81.40;;;;;;4976352;28;20038;-84
2023/06/09 11:30:27;;;;;;;8.25;6.60;;;19.50;81.40;;;;;;4968973;28;20470;-85
2023/06/09 11:32:54;;;;;;;8.90;6.13;;;19.50;81.40;;;;;;4976310;28;20034;-86
2023/06/09 11:35:32;;;;;;;7.60;6.22;;;19.50;81.20;;;;;;5002170;28;20023;-87
2023/06/09 11:37:59;;;;;;;7.95;6.38;;;19.50;81.30;;;;;;4977526;28;20054;-85
2023/06/09 11:40:26;;;;;;;8.43;6.00;;;19.40;81.40;;;;;;4974046;28;20050;-86
2023/06/09 11:42:51;;;;;;;7.85;6.20;;;19.40;81.60;;;;;;4988147;28;20049;-86
2023/06/09 11:45:18;;;;;;;8.10;6.25;;;19.40;81.90;;;;;;5005880;28;20493;-85
2023/06/09 11:47:45;;;;;;;8.07;6.43;;;19.40;82.00;;;;;;4970476;28;20121;-87
2023/06/09 11:50:16;;;;;;;8.93;6.47;;;19.40;82.10;;;;;;4974787;28;20046;-85
2023/06/09 11:52:43;;;;;;;8.40;6.80;;;19.30;82.10;;;;;;4983672;28;20029;-86
2023/06/09 11:55:11;;;;;;;7.43;6.30;;;19.40;82.20;;;;;;4965870;28;20011;-85
2023/06/09 11:57:37;;;;;;;7.88;6.15;;;19.30;82.20;;;;;;4980148;23;20053;-88
2023/06/09 12:00:18;;;;;;;7.97;6.25;;;19.40;82.30;;;;;;4974312;28;20022;-89
2023/06/09 12:09:24;;;;;;;12.85;7.13;;;19.30;82.70;;;;;;5944726;23;20025;-92
2023/06/09 12:12:13;;;;;;;13.60;8.00;;;19.30;83.60;;;;;;5009688;28;20030;-91
2023/06/09 12:14:38;;;;;;;15.20;7.80;;;19.90;84.00;;;;;;4986008;28;20129;-91
2023/06/09 12:22:13;;;;;;;13.45;8.52;;;20.90;79.10;;;;;;4978927;28;20066;-90
2023/06/09 12:24:39;;;;;;;16.75;10.88;;;20.70;79.80;;;;;;4974356;28;20023;-88
2023/06/09 12:27:12;;;;;;;14.70;9.50;;;20.40;80.60;;;;;;4980097;28;20034;-87
2023/06/09 12:29:38;;;;;;;20.52;9.82;;;20.10;81.90;;;;;;4976615;28;20030;-90
2023/06/09 12:32:05;;;;;;;17.08;9.23;;;19.90;82.60;;;;;;4993068;28;20054;-91
2023/06/09 12:34:31;;;;;;;18.33;9.48;;;19.80;83.10;;;;;;4975861;28;20038;-90
2023/06/09 12:36:57;;;;;;;18.00;8.70;;;19.70;83.40;;;;;;4975534;28;20031;-90
2023/06/09 12:39:28;;;;;;;15.13;9.48;;;19.60;83.80;;;;;;4977902;28;20023;-87
2023/06/09 12:41:53;;;;;;;17.02;9.77;;;19.60;83.70;;;;;;4972921;28;20022;-89
2023/06/09 12:44:24;;;;;;;15.48;8.98;;;19.60;83.70;;;;;;4976021;28;20476;-87
2023/06/09 12:46:55;;;;;;;15.20;9.57;;;19.60;83.70;;;;;;4968521;28;20525;-87
2023/06/09 12:49:31;;;;;;;;;;;19.50;83.60;;;;;;4973221;28;20043;-86
2023/06/09 12:51:59;;;;;;;14.07;9.07;;;19.50;83.60;;;;;;4975347;28;19977;-87
2023/06/09 12:54:27;;;;;;;14.98;10.02;;;19.50;83.50;;;;;;4976740;28;20026;-87
2023/06/09 12:56:55;;;;;;;14.45;9.65;;;19.50;83.50;;;;;;4977488;28;20049;-85
2023/06/09 12:59:20;;;;;;;17.23;10.02;;;19.50;83.40;;;;;;4986052;28;20034;-86
2023/06/09 13:01:47;;;;;;;13.45;9.93;;;19.50;83.40;;;;;;4977559;28;20032;-84
2023/06/09 13:04:16;;;;;;;14.27;9.27;;;19.50;83.40;;;;;;4977320;28;20041;-85
2023/06/09 13:06:42;;;;;;;12.75;10.02;;;19.50;83.40;;;;;;4977014;28;20446;-86